sensor_id;sensor_type;location;lat;lon;timestamp;P1;durP1;ratioP1;P2;durP2;ratioP2
75408;SDS011;63979;55.644;37.734;2024-03-06T00:03:19;1.02;;;0.82;;
75408;SDS011;63979;55.644;37.734;2024-03-06T00:08:20;1.40;;;0.68;;
75408;SDS011;63979;55.644;37.734;2024-03-06T00:13:21;0.93;;;0.75;;
75408;SDS011;63979;55.644;37.734;2024-03-06T00:18:22;3.05;;;0.95;;
75408;SDS011;63979;55.644;37.734;2024-03-06T00:23:29;2.28;;;1.00;;
75408;SDS011;63979;55.644;37.734;2024-03-06T00:28:31;1.60;;;0.95;;
75408;SDS011;63979;55.644;37.734;2024-03-06T00:33:31;1.20;;;0.80;;
75408;SDS011;63979;55.644;37.734;2024-03-06T00:38:32;1.27;;;1.05;;
75408;SDS011;63979;55.644;37.734;2024-03-06T00:43:33;1.77;;;0.75;;
75408;SDS011;63979;55.644;37.734;2024-03-06T00:48:34;1.90;;;1.30;;
75408;SDS011;63979;55.644;37.734;2024-03-06T00:53:35;4.25;;;1.58;;
75408;SDS011;63979;55.644;37.734;2024-03-06T00:58:36;1.90;;;1.00;;
75408;SDS011;63979;55.644;37.734;2024-03-06T01:03:40;1.05;;;0.85;;
75408;SDS011;63979;55.644;37.734;2024-03-06T01:08:40;0.93;;;0.82;;
75408;SDS011;63979;55.644;37.734;2024-03-06T01:13:42;1.02;;;0.80;;
75408;SDS011;63979;55.644;37.734;2024-03-06T01:18:42;1.33;;;0.85;;
75408;SDS011;63979;55.644;37.734;2024-03-06T01:23:44;1.13;;;0.75;;
75408;SDS011;63979;55.644;37.734;2024-03-06T01:28:45;3.17;;;0.98;;
75408;SDS011;63979;55.644;37.734;2024-03-06T01:33:46;0.98;;;0.65;;
75408;SDS011;63979;55.644;37.734;2024-03-06T01:38:47;2.10;;;0.80;;
75408;SDS011;63979;55.644;37.734;2024-03-06T01:43:48;1.05;;;0.85;;
75408;SDS011;63979;55.644;37.734;2024-03-06T01:48:48;1.98;;;1.23;;
75408;SDS011;63979;55.644;37.734;2024-03-06T01:53:50;2.55;;;1.00;;
75408;SDS011;63979;55.644;37.734;2024-03-06T01:58:51;1.85;;;1.00;;
75408;SDS011;63979;55.644;37.734;2024-03-06T02:03:54;5.10;;;1.70;;
75408;SDS011;63979;55.644;37.734;2024-03-06T02:08:55;2.10;;;1.27;;
75408;SDS011;63979;55.644;37.734;2024-03-06T02:13:56;1.27;;;1.15;;
75408;SDS011;63979;55.644;37.734;2024-03-06T02:18:57;3.83;;;0.73;;
75408;SDS011;63979;55.644;37.734;2024-03-06T02:23:58;2.22;;;1.15;;
75408;SDS011;63979;55.644;37.734;2024-03-06T02:28:58;9.30;;;1.33;;
75408;SDS011;63979;55.644;37.734;2024-03-06T02:34:00;1.92;;;0.93;;
75408;SDS011;63979;55.644;37.734;2024-03-06T02:39:05;3.63;;;1.02;;
75408;SDS011;63979;55.644;37.734;2024-03-06T02:44:09;0.82;;;0.75;;
75408;SDS011;63979;55.644;37.734;2024-03-06T02:49:09;2.60;;;1.50;;
75408;SDS011;63979;55.644;37.734;2024-03-06T02:54:10;1.25;;;1.00;;
75408;SDS011;63979;55.644;37.734;2024-03-06T02:59:11;1.42;;;0.50;;
75408;SDS011;63979;55.644;37.734;2024-03-06T03:04:13;0.77;;;0.70;;
75408;SDS011;63979;55.644;37.734;2024-03-06T03:09:14;3.38;;;0.82;;
75408;SDS011;63979;55.644;37.734;2024-03-06T03:14:14;0.98;;;0.70;;
75408;SDS011;63979;55.644;37.734;2024-03-06T03:19:15;1.13;;;0.80;;
75408;SDS011;63979;55.644;37.734;2024-03-06T03:24:16;1.83;;;0.77;;
75408;SDS011;63979;55.644;37.734;2024-03-06T03:29:20;3.03;;;1.42;;
75408;SDS011;63979;55.644;37.734;2024-03-06T03:34:22;2.38;;;0.85;;
75408;SDS011;63979;55.644;37.734;2024-03-06T03:39:23;6.25;;;1.63;;
75408;SDS011;63979;55.644;37.734;2024-03-06T03:44:25;1.08;;;0.98;;
75408;SDS011;63979;55.644;37.734;2024-03-06T03:49:25;1.23;;;0.80;;
75408;SDS011;63979;55.644;37.734;2024-03-06T03:54:26;1.23;;;0.93;;
75408;SDS011;63979;55.644;37.734;2024-03-06T03:59:27;3.45;;;1.25;;
75408;SDS011;63979;55.644;37.734;2024-03-06T04:04:29;1.40;;;0.65;;
75408;SDS011;63979;55.644;37.734;2024-03-06T04:09:32;1.65;;;1.48;;
75408;SDS011;63979;55.644;37.734;2024-03-06T04:14:36;2.78;;;1.55;;
75408;SDS011;63979;55.644;37.734;2024-03-06T04:19:37;4.30;;;1.95;;
75408;SDS011;63979;55.644;37.734;2024-03-06T04:24:40;2.47;;;1.50;;
75408;SDS011;63979;55.644;37.734;2024-03-06T04:29:42;2.70;;;1.38;;
75408;SDS011;63979;55.644;37.734;2024-03-06T04:34:43;2.63;;;1.38;;
75408;SDS011;63979;55.644;37.734;2024-03-06T04:39:44;0.80;;;0.75;;
75408;SDS011;63979;55.644;37.734;2024-03-06T04:44:45;1.40;;;1.27;;
75408;SDS011;63979;55.644;37.734;2024-03-06T04:49:46;2.58;;;1.73;;
75408;SDS011;63979;55.644;37.734;2024-03-06T04:54:47;1.50;;;1.40;;
75408;SDS011;63979;55.644;37.734;2024-03-06T04:59:48;0.82;;;0.82;;
75408;SDS011;63979;55.644;37.734;2024-03-06T05:04:50;2.40;;;1.25;;
75408;SDS011;63979;55.644;37.734;2024-03-06T05:09:50;3.38;;;1.50;;
75408;SDS011;63979;55.644;37.734;2024-03-06T05:14:52;2.60;;;1.63;;
75408;SDS011;63979;55.644;37.734;2024-03-06T05:19:54;11.32;;;2.03;;
75408;SDS011;63979;55.644;37.734;2024-03-06T05:24:55;5.32;;;2.78;;
75408;SDS011;63979;55.644;37.734;2024-03-06T05:29:56;5.03;;;2.45;;
75408;SDS011;63979;55.644;37.734;2024-03-06T05:34:57;3.63;;;2.05;;
75408;SDS011;63979;55.644;37.734;2024-03-06T05:40:00;6.80;;;2.35;;
75408;SDS011;63979;55.644;37.734;2024-03-06T05:45:02;3.90;;;2.33;;
75408;SDS011;63979;55.644;37.734;2024-03-06T05:50:11;3.95;;;2.45;;
75408;SDS011;63979;55.644;37.734;2024-03-06T05:55:12;8.25;;;2.67;;
75408;SDS011;63979;55.644;37.734;2024-03-06T06:00:13;4.93;;;2.38;;
75408;SDS011;63979;55.644;37.734;2024-03-06T06:05:14;6.43;;;2.92;;
75408;SDS011;63979;55.644;37.734;2024-03-06T06:10:16;6.53;;;3.42;;
75408;SDS011;63979;55.644;37.734;2024-03-06T06:15:35;7.15;;;3.00;;
75408;SDS011;63979;55.644;37.734;2024-03-06T06:20:36;6.53;;;3.13;;
75408;SDS011;63979;55.644;37.734;2024-03-06T06:25:37;5.22;;;2.80;;
75408;SDS011;63979;55.644;37.734;2024-03-06T06:30:38;5.55;;;2.92;;
75408;SDS011;63979;55.644;37.734;2024-03-06T06:35:38;8.48;;;2.80;;
75408;SDS011;63979;55.644;37.734;2024-03-06T06:40:39;5.40;;;3.28;;
75408;SDS011;63979;55.644;37.734;2024-03-06T06:45:43;7.68;;;3.60;;
75408;SDS011;63979;55.644;37.734;2024-03-06T06:50:44;4.10;;;2.90;;
75408;SDS011;63979;55.644;37.734;2024-03-06T06:55:48;5.40;;;2.38;;
75408;SDS011;63979;55.644;37.734;2024-03-06T07:00:49;5.45;;;2.55;;
75408;SDS011;63979;55.644;37.734;2024-03-06T07:05:51;5.95;;;2.72;;
75408;SDS011;63979;55.644;37.734;2024-03-06T07:10:52;7.80;;;2.25;;
75408;SDS011;63979;55.644;37.734;2024-03-06T07:15:55;3.85;;;2.25;;
75408;SDS011;63979;55.644;37.734;2024-03-06T07:20:56;3.28;;;2.17;;
75408;SDS011;63979;55.644;37.734;2024-03-06T07:25:57;4.53;;;2.38;;
75408;SDS011;63979;55.644;37.734;2024-03-06T07:30:59;7.30;;;3.22;;
75408;SDS011;63979;55.644;37.734;2024-03-06T07:36:00;4.07;;;2.15;;
75408;SDS011;63979;55.644;37.734;2024-03-06T07:41:01;7.05;;;2.70;;
75408;SDS011;63979;55.644;37.734;2024-03-06T07:46:02;9.25;;;3.08;;
75408;SDS011;63979;55.644;37.734;2024-03-06T07:51:03;7.57;;;2.70;;
75408;SDS011;63979;55.644;37.734;2024-03-06T07:56:04;5.68;;;2.53;;
75408;SDS011;63979;55.644;37.734;2024-03-06T08:01:06;2.83;;;1.70;;
75408;SDS011;63979;55.644;37.734;2024-03-06T08:06:07;4.07;;;2.42;;
75408;SDS011;63979;55.644;37.734;2024-03-06T08:11:09;6.35;;;1.90;;
75408;SDS011;63979;55.644;37.734;2024-03-06T08:16:11;7.95;;;2.30;;
75408;SDS011;63979;55.644;37.734;2024-03-06T08:21:12;4.22;;;2.20;;
75408;SDS011;63979;55.644;37.734;2024-03-06T08:26:13;5.25;;;1.63;;
75408;SDS011;63979;55.644;37.734;2024-03-06T08:31:14;9.15;;;2.33;;
75408;SDS011;63979;55.644;37.734;2024-03-06T08:36:15;4.53;;;1.85;;
75408;SDS011;63979;55.644;37.734;2024-03-06T08:41:16;16.40;;;2.70;;
75408;SDS011;63979;55.644;37.734;2024-03-06T08:46:17;6.95;;;2.38;;
75408;SDS011;63979;55.644;37.734;2024-03-06T08:51:17;6.53;;;2.38;;
75408;SDS011;63979;55.644;37.734;2024-03-06T08:56:18;6.13;;;2.80;;
75408;SDS011;63979;55.644;37.734;2024-03-06T09:01:19;3.50;;;2.10;;
75408;SDS011;63979;55.644;37.734;2024-03-06T09:06:20;6.88;;;2.25;;
75408;SDS011;63979;55.644;37.734;2024-03-06T09:11:21;4.60;;;1.52;;
75408;SDS011;63979;55.644;37.734;2024-03-06T09:16:22;6.15;;;1.90;;
75408;SDS011;63979;55.644;37.734;2024-03-06T09:21:24;4.07;;;2.10;;
75408;SDS011;63979;55.644;37.734;2024-03-06T09:26:26;7.10;;;2.00;;
75408;SDS011;63979;55.644;37.734;2024-03-06T09:31:27;16.23;;;3.65;;
75408;SDS011;63979;55.644;37.734;2024-03-06T09:36:28;6.88;;;2.83;;
75408;SDS011;63979;55.644;37.734;2024-03-06T09:41:28;6.25;;;1.98;;
75408;SDS011;63979;55.644;37.734;2024-03-06T09:46:29;6.43;;;2.03;;
75408;SDS011;63979;55.644;37.734;2024-03-06T09:51:31;10.27;;;2.47;;
75408;SDS011;63979;55.644;37.734;2024-03-06T09:56:32;4.97;;;2.10;;
75408;SDS011;63979;55.644;37.734;2024-03-06T10:01:33;8.35;;;1.95;;
75408;SDS011;63979;55.644;37.734;2024-03-06T10:06:40;7.85;;;1.98;;
75408;SDS011;63979;55.644;37.734;2024-03-06T10:11:42;4.88;;;1.65;;
75408;SDS011;63979;55.644;37.734;2024-03-06T10:21:57;4.68;;;1.90;;
75408;SDS011;63979;55.644;37.734;2024-03-06T10:26:59;3.78;;;1.95;;
75408;SDS011;63979;55.644;37.734;2024-03-06T10:32:01;5.80;;;1.90;;
75408;SDS011;63979;55.644;37.734;2024-03-06T10:37:02;3.95;;;1.67;;
75408;SDS011;63979;55.644;37.734;2024-03-06T10:42:06;3.33;;;1.75;;
75408;SDS011;63979;55.644;37.734;2024-03-06T10:52:10;21.88;;;3.00;;
75408;SDS011;63979;55.644;37.734;2024-03-06T10:57:12;8.43;;;1.98;;
75408;SDS011;63979;55.644;37.734;2024-03-06T11:02:14;5.35;;;2.38;;
75408;SDS011;63979;55.644;37.734;2024-03-06T11:07:17;3.78;;;1.85;;
75408;SDS011;63979;55.644;37.734;2024-03-06T11:17:39;5.13;;;1.95;;
75408;SDS011;63979;55.644;37.734;2024-03-06T11:28:03;4.97;;;2.28;;
75408;SDS011;63979;55.644;37.734;2024-03-06T11:33:05;5.10;;;1.98;;
75408;SDS011;63979;55.644;37.734;2024-03-06T11:38:08;7.10;;;2.03;;
75408;SDS011;63979;55.644;37.734;2024-03-06T11:43:22;7.10;;;2.40;;
75408;SDS011;63979;55.644;37.734;2024-03-06T11:48:24;8.18;;;2.65;;
75408;SDS011;63979;55.644;37.734;2024-03-06T11:53:25;10.38;;;2.38;;
75408;SDS011;63979;55.644;37.734;2024-03-06T11:58:29;6.05;;;1.90;;
75408;SDS011;63979;55.644;37.734;2024-03-06T12:03:48;9.27;;;2.53;;
75408;SDS011;63979;55.644;37.734;2024-03-06T12:08:49;8.27;;;2.60;;
75408;SDS011;63979;55.644;37.734;2024-03-06T12:13:51;7.90;;;2.42;;
75408;SDS011;63979;55.644;37.734;2024-03-06T12:18:55;10.93;;;2.83;;
75408;SDS011;63979;55.644;37.734;2024-03-06T12:29:09;6.72;;;2.50;;
75408;SDS011;63979;55.644;37.734;2024-03-06T12:34:15;5.82;;;2.92;;
75408;SDS011;63979;55.644;37.734;2024-03-06T12:39:18;9.18;;;3.10;;
75408;SDS011;63979;55.644;37.734;2024-03-06T12:44:23;5.50;;;2.58;;
75408;SDS011;63979;55.644;37.734;2024-03-06T12:49:24;7.78;;;2.83;;
75408;SDS011;63979;55.644;37.734;2024-03-06T12:54:25;5.30;;;2.42;;
75408;SDS011;63979;55.644;37.734;2024-03-06T12:59:26;17.15;;;4.07;;
75408;SDS011;63979;55.644;37.734;2024-03-06T13:04:26;9.45;;;2.60;;
75408;SDS011;63979;55.644;37.734;2024-03-06T13:09:27;7.10;;;2.67;;
75408;SDS011;63979;55.644;37.734;2024-03-06T13:14:28;7.88;;;2.03;;
75408;SDS011;63979;55.644;37.734;2024-03-06T13:19:29;8.52;;;2.92;;
75408;SDS011;63979;55.644;37.734;2024-03-06T13:24:30;4.60;;;2.90;;
75408;SDS011;63979;55.644;37.734;2024-03-06T13:29:31;5.38;;;2.40;;
75408;SDS011;63979;55.644;37.734;2024-03-06T13:34:32;9.60;;;2.55;;
75408;SDS011;63979;55.644;37.734;2024-03-06T13:39:33;25.40;;;3.05;;
75408;SDS011;63979;55.644;37.734;2024-03-06T13:44:35;11.20;;;2.50;;
75408;SDS011;63979;55.644;37.734;2024-03-06T13:49:37;11.65;;;3.60;;
75408;SDS011;63979;55.644;37.734;2024-03-06T13:54:42;8.57;;;2.90;;
75408;SDS011;63979;55.644;37.734;2024-03-06T13:59:43;8.07;;;2.92;;
75408;SDS011;63979;55.644;37.734;2024-03-06T14:04:44;3.97;;;2.03;;
75408;SDS011;63979;55.644;37.734;2024-03-06T14:09:47;5.20;;;1.90;;
75408;SDS011;63979;55.644;37.734;2024-03-06T14:14:49;12.38;;;2.15;;
75408;SDS011;63979;55.644;37.734;2024-03-06T14:19:50;7.65;;;2.25;;
75408;SDS011;63979;55.644;37.734;2024-03-06T14:24:51;8.48;;;2.60;;
75408;SDS011;63979;55.644;37.734;2024-03-06T14:29:52;8.48;;;3.20;;
75408;SDS011;63979;55.644;37.734;2024-03-06T14:34:54;7.30;;;2.90;;
75408;SDS011;63979;55.644;37.734;2024-03-06T14:39:55;8.27;;;2.63;;
75408;SDS011;63979;55.644;37.734;2024-03-06T14:44:57;7.35;;;2.72;;
75408;SDS011;63979;55.644;37.734;2024-03-06T14:49:59;6.50;;;2.45;;
75408;SDS011;63979;55.644;37.734;2024-03-06T14:55:00;4.47;;;2.13;;
75408;SDS011;63979;55.644;37.734;2024-03-06T15:00:01;4.05;;;2.40;;
75408;SDS011;63979;55.644;37.734;2024-03-06T15:05:06;6.40;;;2.45;;
75408;SDS011;63979;55.644;37.734;2024-03-06T15:10:07;8.07;;;2.80;;
75408;SDS011;63979;55.644;37.734;2024-03-06T15:15:09;4.88;;;2.58;;
75408;SDS011;63979;55.644;37.734;2024-03-06T15:20:10;5.85;;;2.40;;
75408;SDS011;63979;55.644;37.734;2024-03-06T15:25:11;8.23;;;2.50;;
75408;SDS011;63979;55.644;37.734;2024-03-06T15:30:13;5.78;;;2.15;;
75408;SDS011;63979;55.644;37.734;2024-03-06T15:35:14;7.57;;;2.38;;
75408;SDS011;63979;55.644;37.734;2024-03-06T15:40:16;7.43;;;2.33;;
75408;SDS011;63979;55.644;37.734;2024-03-06T15:45:20;10.02;;;3.05;;
75408;SDS011;63979;55.644;37.734;2024-03-06T15:50:22;8.25;;;2.47;;
75408;SDS011;63979;55.644;37.734;2024-03-06T15:55:23;11.63;;;3.20;;
75408;SDS011;63979;55.644;37.734;2024-03-06T16:00:24;7.43;;;2.67;;
75408;SDS011;63979;55.644;37.734;2024-03-06T16:05:25;7.32;;;3.00;;
75408;SDS011;63979;55.644;37.734;2024-03-06T16:10:27;6.63;;;2.55;;
75408;SDS011;63979;55.644;37.734;2024-03-06T16:15:28;5.70;;;2.70;;
75408;SDS011;63979;55.644;37.734;2024-03-06T16:20:29;4.05;;;2.33;;
75408;SDS011;63979;55.644;37.734;2024-03-06T16:25:29;3.90;;;2.70;;
75408;SDS011;63979;55.644;37.734;2024-03-06T16:30:33;5.03;;;2.97;;
75408;SDS011;63979;55.644;37.734;2024-03-06T16:35:33;8.32;;;2.72;;
75408;SDS011;63979;55.644;37.734;2024-03-06T16:40:34;11.32;;;2.58;;
75408;SDS011;63979;55.644;37.734;2024-03-06T16:45:35;2.78;;;2.00;;
75408;SDS011;63979;55.644;37.734;2024-03-06T16:50:36;4.97;;;2.30;;
75408;SDS011;63979;55.644;37.734;2024-03-06T16:55:38;4.55;;;2.33;;
75408;SDS011;63979;55.644;37.734;2024-03-06T17:00:39;15.40;;;3.15;;
75408;SDS011;63979;55.644;37.734;2024-03-06T17:05:41;14.40;;;4.78;;
75408;SDS011;63979;55.644;37.734;2024-03-06T17:10:42;13.05;;;3.90;;
75408;SDS011;63979;55.644;37.734;2024-03-06T17:15:43;15.63;;;3.58;;
75408;SDS011;63979;55.644;37.734;2024-03-06T17:20:45;11.23;;;3.25;;
75408;SDS011;63979;55.644;37.734;2024-03-06T17:25:46;9.02;;;3.45;;
75408;SDS011;63979;55.644;37.734;2024-03-06T17:30:48;15.65;;;4.13;;
75408;SDS011;63979;55.644;37.734;2024-03-06T17:35:49;15.02;;;2.42;;
75408;SDS011;63979;55.644;37.734;2024-03-06T17:40:50;9.88;;;3.33;;
75408;SDS011;63979;55.644;37.734;2024-03-06T17:45:51;5.32;;;3.08;;
75408;SDS011;63979;55.644;37.734;2024-03-06T17:50:52;6.30;;;1.88;;
75408;SDS011;63979;55.644;37.734;2024-03-06T17:55:53;3.72;;;1.95;;
75408;SDS011;63979;55.644;37.734;2024-03-06T18:00:54;6.57;;;1.70;;
75408;SDS011;63979;55.644;37.734;2024-03-06T18:05:55;4.60;;;1.98;;
75408;SDS011;63979;55.644;37.734;2024-03-06T18:10:56;4.53;;;2.13;;
75408;SDS011;63979;55.644;37.734;2024-03-06T18:15:58;3.85;;;2.30;;
75408;SDS011;63979;55.644;37.734;2024-03-06T18:21:00;4.60;;;2.50;;
75408;SDS011;63979;55.644;37.734;2024-03-06T18:26:01;4.10;;;2.40;;
75408;SDS011;63979;55.644;37.734;2024-03-06T18:31:03;6.82;;;2.75;;
75408;SDS011;63979;55.644;37.734;2024-03-06T18:36:04;4.13;;;2.65;;
75408;SDS011;63979;55.644;37.734;2024-03-06T18:41:06;8.23;;;2.45;;
75408;SDS011;63979;55.644;37.734;2024-03-06T18:46:07;7.15;;;2.97;;
75408;SDS011;63979;55.644;37.734;2024-03-06T18:51:08;3.10;;;1.40;;
75408;SDS011;63979;55.644;37.734;2024-03-06T18:56:09;8.77;;;2.33;;
75408;SDS011;63979;55.644;37.734;2024-03-06T19:01:11;10.98;;;2.40;;
75408;SDS011;63979;55.644;37.734;2024-03-06T19:06:11;7.38;;;3.20;;
75408;SDS011;63979;55.644;37.734;2024-03-06T19:11:12;8.05;;;3.22;;
75408;SDS011;63979;55.644;37.734;2024-03-06T19:16:13;8.40;;;4.07;;
75408;SDS011;63979;55.644;37.734;2024-03-06T19:21:15;14.23;;;5.75;;
75408;SDS011;63979;55.644;37.734;2024-03-06T19:26:16;16.73;;;5.32;;
75408;SDS011;63979;55.644;37.734;2024-03-06T19:31:17;10.13;;;4.15;;
75408;SDS011;63979;55.644;37.734;2024-03-06T19:36:18;6.88;;;3.90;;
75408;SDS011;63979;55.644;37.734;2024-03-06T19:41:19;10.80;;;4.20;;
75408;SDS011;63979;55.644;37.734;2024-03-06T19:46:20;12.13;;;4.22;;
75408;SDS011;63979;55.644;37.734;2024-03-06T19:51:23;10.38;;;3.13;;
75408;SDS011;63979;55.644;37.734;2024-03-06T19:56:24;13.90;;;3.08;;
75408;SDS011;63979;55.644;37.734;2024-03-06T20:01:25;9.10;;;3.33;;
75408;SDS011;63979;55.644;37.734;2024-03-06T20:06:30;10.55;;;2.95;;
75408;SDS011;63979;55.644;37.734;2024-03-06T20:11:32;5.60;;;2.35;;
75408;SDS011;63979;55.644;37.734;2024-03-06T20:16:33;11.98;;;3.20;;
75408;SDS011;63979;55.644;37.734;2024-03-06T20:21:34;6.90;;;3.05;;
75408;SDS011;63979;55.644;37.734;2024-03-06T20:26:39;5.72;;;2.22;;
75408;SDS011;63979;55.644;37.734;2024-03-06T20:31:41;8.55;;;3.08;;
75408;SDS011;63979;55.644;37.734;2024-03-06T20:36:44;11.68;;;3.45;;
75408;SDS011;63979;55.644;37.734;2024-03-06T20:41:44;7.28;;;3.05;;
75408;SDS011;63979;55.644;37.734;2024-03-06T20:46:46;7.53;;;3.50;;
75408;SDS011;63979;55.644;37.734;2024-03-06T20:51:47;7.20;;;4.05;;
75408;SDS011;63979;55.644;37.734;2024-03-06T20:56:49;7.10;;;2.10;;
75408;SDS011;63979;55.644;37.734;2024-03-06T21:01:50;5.35;;;2.13;;
75408;SDS011;63979;55.644;37.734;2024-03-06T21:06:53;5.55;;;2.92;;
75408;SDS011;63979;55.644;37.734;2024-03-06T21:11:55;6.55;;;2.45;;
75408;SDS011;63979;55.644;37.734;2024-03-06T21:16:56;16.25;;;2.40;;
75408;SDS011;63979;55.644;37.734;2024-03-06T21:22:00;5.57;;;2.25;;
75408;SDS011;63979;55.644;37.734;2024-03-06T21:27:01;6.22;;;2.17;;
75408;SDS011;63979;55.644;37.734;2024-03-06T21:32:02;4.72;;;1.80;;
75408;SDS011;63979;55.644;37.734;2024-03-06T21:37:04;8.65;;;3.40;;
75408;SDS011;63979;55.644;37.734;2024-03-06T21:42:05;11.30;;;3.70;;
75408;SDS011;63979;55.644;37.734;2024-03-06T21:47:06;11.07;;;2.60;;
75408;SDS011;63979;55.644;37.734;2024-03-06T21:52:07;3.25;;;2.13;;
75408;SDS011;63979;55.644;37.734;2024-03-06T21:57:11;7.80;;;2.67;;
75408;SDS011;63979;55.644;37.734;2024-03-06T22:02:12;6.20;;;2.72;;
75408;SDS011;63979;55.644;37.734;2024-03-06T22:07:12;3.80;;;2.10;;
75408;SDS011;63979;55.644;37.734;2024-03-06T22:12:13;6.35;;;2.85;;
75408;SDS011;63979;55.644;37.734;2024-03-06T22:17:14;5.63;;;2.08;;
75408;SDS011;63979;55.644;37.734;2024-03-06T22:22:15;2.85;;;1.90;;
75408;SDS011;63979;55.644;37.734;2024-03-06T22:27:17;5.05;;;2.03;;
75408;SDS011;63979;55.644;37.734;2024-03-06T22:32:17;11.73;;;2.78;;
75408;SDS011;63979;55.644;37.734;2024-03-06T22:37:18;3.53;;;2.00;;
75408;SDS011;63979;55.644;37.734;2024-03-06T22:42:20;3.83;;;1.90;;
75408;SDS011;63979;55.644;37.734;2024-03-06T22:47:21;3.45;;;1.65;;
75408;SDS011;63979;55.644;37.734;2024-03-06T22:52:22;3.60;;;2.10;;
75408;SDS011;63979;55.644;37.734;2024-03-06T22:57:22;4.97;;;2.25;;
75408;SDS011;63979;55.644;37.734;2024-03-06T23:02:23;4.30;;;1.63;;
75408;SDS011;63979;55.644;37.734;2024-03-06T23:07:24;4.07;;;2.45;;
75408;SDS011;63979;55.644;37.734;2024-03-06T23:12:25;6.38;;;2.78;;
75408;SDS011;63979;55.644;37.734;2024-03-06T23:17:26;11.85;;;3.53;;
75408;SDS011;63979;55.644;37.734;2024-03-06T23:22:27;5.53;;;2.90;;
75408;SDS011;63979;55.644;37.734;2024-03-06T23:27:28;7.30;;;2.67;;
75408;SDS011;63979;55.644;37.734;2024-03-06T23:32:29;5.78;;;1.95;;
75408;SDS011;63979;55.644;37.734;2024-03-06T23:37:31;1.83;;;1.55;;
75408;SDS011;63979;55.644;37.734;2024-03-06T23:42:32;8.88;;;2.42;;
75408;SDS011;63979;55.644;37.734;2024-03-06T23:47:33;4.38;;;2.47;;
75408;SDS011;63979;55.644;37.734;2024-03-06T23:52:35;3.88;;;1.60;;
75408;SDS011;63979;55.644;37.734;2024-03-06T23:57:36;3.00;;;1.88;;
